Time;durP1;ratioP1;P1;durP2;ratioP2;P2;SDS_P1;SDS_P2;PMS_P1;PMS_P2;Temp;Humidity;BMP_temperature;BMP_pressure;BME280_temperature;BME280_humidity;BME280_pressure;Samples;Min_cycle;Max_cycle;Signal;HPM_P1;HPM_P2
2022/06/21 00:00:25;;;;;;;6.47;3.10;;;;;;;21.96;43.54;95664.66;10368218;28;98650;-71
2022/06/21 00:05:31;;;;;;;4.80;3.33;;;;;;;21.94;43.59;95672.88;10362967;28;96872;-71
2022/06/21 00:10:35;;;;;;;9.07;3.30;;;;;;;21.92;44.40;95679.47;10359062;28;97871;-71
2022/06/21 00:15:40;;;;;;;8.82;3.13;;;;;;;21.92;44.66;95674.97;10364780;28;97755;-71
2022/06/21 00:20:44;;;;;;;4.45;2.92;;;;;;;21.57;45.37;95680.25;10361747;28;98708;-71
2022/06/21 00:25:47;;;;;;;5.43;3.10;;;;;;;21.28;46.44;95677.47;10374809;28;96811;-71
2022/06/21 00:30:53;;;;;;;5.60;2.67;;;;;;;21.20;46.15;95672.47;10361609;28;97934;-71
2022/06/21 00:36:00;;;;;;;5.20;3.15;;;;;;;21.26;46.40;95671.56;10354226;28;98768;-71
2022/06/21 00:41:07;;;;;;;5.82;3.22;;;;;;;21.19;46.32;95671.69;10367327;28;98293;-71
2022/06/21 00:46:26;;;;;;;8.88;3.03;;;;;;;21.27;46.15;95678.50;10361264;28;97803;-71
2022/06/21 00:51:34;;;;;;;5.82;3.03;;;;;;;21.24;46.13;95681.59;10361305;28;98578;-71
2022/06/21 00:56:42;;;;;;;7.80;3.22;;;;;;;21.18;46.36;95682.53;10364188;28;97103;-71
2022/06/21 01:01:47;;;;;;;4.03;2.72;;;;;;;21.22;46.25;95681.03;10366695;28;96849;-71
2022/06/21 01:06:54;;;;;;;7.07;2.75;;;;;;;21.15;45.89;95686.44;10353184;28;98525;-71
2022/06/21 01:12:02;;;;;;;5.28;2.78;;;;;;;21.18;46.04;95674.56;10363763;28;98293;-71
2022/06/21 01:17:08;;;;;;;3.78;2.90;;;;;;;21.13;46.59;95673.38;10363151;28;96832;-71
2022/06/21 01:22:25;;;;;;;3.55;2.63;;;;;;;20.95;46.91;95681.44;10363828;28;97050;-71
2022/06/21 01:27:30;;;;;;;3.53;2.45;;;;;;;20.89;47.21;95671.72;10374272;28;96969;-71
2022/06/21 01:32:33;;;;;;;7.03;2.85;;;;;;;20.78;48.14;95675.94;10376401;28;96804;-71
2022/06/21 01:37:36;;;;;;;8.52;3.40;;;;;;;20.59;48.63;95684.97;10371255;28;97249;-71
2022/06/21 01:42:44;;;;;;;6.00;2.97;;;;;;;20.44;49.13;95680.03;10355526;28;97491;-71
2022/06/21 01:47:51;;;;;;;5.18;2.67;;;;;;;20.24;49.27;95689.06;10364093;28;98844;-71
2022/06/21 01:52:56;;;;;;;4.53;3.13;;;;;;;20.14;49.97;95686.09;10368838;28;96933;-71
2022/06/21 01:58:02;;;;;;;3.78;2.78;;;;;;;20.19;48.86;95688.91;10366059;28;99194;-71
2022/06/21 02:03:12;;;;;;;7.55;2.95;;;;;;;20.18;49.64;95684.63;10368038;28;97082;-71
2022/06/21 02:08:18;;;;;;;3.47;2.92;;;;;;;19.96;50.26;95684.28;10362422;28;98908;-71
2022/06/21 02:13:27;;;;;;;4.43;2.80;;;;;;;19.96;49.16;95695.69;10366073;28;96988;-71
2022/06/21 02:18:33;;;;;;;5.22;3.08;;;;;;;19.98;49.53;95683.00;10363483;28;98836;-71
2022/06/21 02:23:36;;;;;;;4.57;2.75;;;;;;;20.02;49.30;95698.47;10368817;28;98453;-71
2022/06/21 02:28:41;;;;;;;4.40;2.60;;;;;;;20.05;49.79;95692.75;10368746;28;97792;-71
2022/06/21 02:33:47;;;;;;;5.18;2.75;;;;;;;19.89;49.55;95694.94;10359733;28;98469;-70
2022/06/21 02:38:54;;;;;;;5.20;2.80;;;;;;;19.83;49.75;95695.81;10361072;28;97823;-71
2022/06/21 02:44:03;;;;;;;4.68;2.83;;;;;;;19.76;50.04;95700.34;10370991;28;97012;-71
2022/06/21 02:49:21;;;;;;;4.60;2.40;;;;;;;19.63;50.02;95694.13;10359617;28;96896;-71
2022/06/21 02:54:26;;;;;;;7.07;2.92;;;;;;;19.50;50.76;95702.19;10364602;28;98666;-71
2022/06/21 02:59:35;;;;;;;3.35;2.95;;;;;;;19.47;50.75;95694.69;10361484;28;98767;-71
2022/06/21 03:04:41;;;;;;;7.38;3.30;;;;;;;19.50;51.45;95699.53;10362433;28;96907;-70
2022/06/21 03:09:44;;;;;;;3.83;2.88;;;;;;;19.57;50.44;95692.34;10362610;28;96833;-71
2022/06/21 03:14:50;;;;;;;8.20;3.58;;;;;;;19.41;51.61;95690.25;10364990;28;96822;-71
2022/06/21 03:19:54;;;;;;;4.32;3.15;;;;;;;19.20;52.18;95692.25;10359676;28;98858;-70
2022/06/21 03:25:00;;;;;;;4.80;3.30;;;;;;;19.03;53.12;95683.19;10365167;28;99582;-70
2022/06/21 03:30:05;;;;;;;5.13;3.28;;;;;;;18.92;53.56;95676.75;10362793;28;96930;-71
2022/06/21 03:35:09;;;;;;;5.00;3.10;;;;;;;18.86;53.78;95681.09;10359917;28;98528;-71
2022/06/21 03:45:41;;;;;;;6.93;3.40;;;;;;;18.71;54.98;95675.25;10360347;28;96956;-71
2022/06/21 03:50:49;;;;;;;7.07;3.50;;;;;;;18.68;55.72;95683.59;10362625;28;99564;-71
2022/06/21 03:55:59;;;;;;;5.47;3.30;;;;;;;18.74;56.14;95682.75;10363264;28;98414;-71
2022/06/21 04:01:07;;;;;;;6.22;3.50;;;;;;;18.85;55.82;95690.00;10365338;28;98993;-71
2022/06/21 04:06:15;;;;;;;6.82;4.25;;;;;;;18.94;55.99;95692.44;10361691;28;97117;-72
2022/06/21 04:11:22;;;;;;;5.90;3.80;;;;;;;18.91;55.90;95676.97;10363519;28;98426;-71
2022/06/21 04:16:32;;;;;;;4.82;3.35;;;;;;;18.88;56.63;95668.44;10365993;28;96779;-71
2022/06/21 04:21:42;;;;;;;7.68;3.60;;;;;;;18.86;57.04;95675.78;10360861;28;98684;-71
2022/06/21 04:26:50;;;;;;;6.15;3.67;;;;;;;18.73;56.96;95675.84;10362654;28;98687;-70
2022/06/21 04:31:58;;;;;;;5.45;3.83;;;;;;;18.76;57.14;95672.78;10359216;28;102069;-71
2022/06/21 04:37:06;;;;;;;4.82;3.67;;;;;;;18.87;57.04;95679.25;10357372;28;97666;-70
2022/06/21 04:42:15;;;;;;;5.65;3.65;;;;;;;19.00;56.64;95686.28;10367434;28;97720;-72
2022/06/21 04:47:24;;;;;;;5.35;4.20;;;;;;;18.90;58.00;95693.88;10355706;28;98625;-71
2022/06/21 04:52:32;;;;;;;7.97;4.20;;;;;;;19.02;58.67;95695.63;10361487;28;97527;-71
2022/06/21 04:57:35;;;;;;;6.00;3.97;;;;;;;19.31;57.55;95697.88;10364381;28;98348;-71
2022/06/21 05:02:43;;;;;;;6.63;4.32;;;;;;;19.53;57.88;95695.66;10364584;28;97729;-71
2022/06/21 05:07:49;;;;;;;5.97;4.35;;;;;;;19.59;57.36;95706.22;10362815;28;98655;-71
2022/06/21 05:12:54;;;;;;;8.80;4.70;;;;;;;19.69;57.18;95694.28;10370525;28;97574;-71
2022/06/21 05:18:04;;;;;;;6.80;4.25;;;;;;;19.93;57.85;95690.81;10370334;28;101084;-72
2022/06/21 05:23:10;;;;;;;8.05;4.15;;;;;;;20.11;56.81;95699.81;10365491;28;97070;-71
2022/06/21 05:28:21;;;;;;;6.88;4.20;;;;;;;20.21;56.25;95708.06;10362749;28;99299;-70
2022/06/21 05:33:31;;;;;;;5.65;4.00;;;;;;;20.37;56.16;95710.13;10358841;28;98045;-71
2022/06/21 05:38:38;;;;;;;5.88;4.55;;;;;;;20.55;54.69;95698.69;10361922;28;98599;-71
2022/06/21 05:43:45;;;;;;;7.03;4.60;;;;;;;20.73;56.19;95702.31;10364405;28;100428;-72
2022/06/21 05:48:51;;;;;;;6.28;4.30;;;;;;;20.93;56.49;95699.44;10365201;28;98631;-72
2022/06/21 05:53:59;;;;;;;8.68;4.93;;;;;;;21.16;55.91;95698.69;10365316;28;99768;-72
2022/06/21 05:59:04;;;;;;;4.90;4.25;;;;;;;21.44;55.86;95700.69;10356834;28;97816;-71
2022/06/21 06:04:15;;;;;;;7.75;4.68;;;;;;;21.77;55.25;95688.72;10366236;28;97699;-72
2022/06/21 06:09:25;;;;;;;7.13;4.57;;;;;;;22.28;54.73;95688.19;10362421;28;97069;-72
2022/06/21 06:14:34;;;;;;;7.45;4.22;;;;;;;22.60;53.83;95692.06;10366879;28;98635;-72
2022/06/21 06:19:44;;;;;;;5.15;4.35;;;;;;;22.72;53.80;95704.53;10378187;28;96947;-72
2022/06/21 06:24:53;;;;;;;5.63;4.45;;;;;;;22.81;53.08;95705.78;10370749;28;97232;-72
2022/06/21 06:30:03;;;;;;;6.45;4.10;;;;;;;22.96;52.23;95705.22;10363081;28;97886;-73
2022/06/21 06:35:17;;;;;;;6.00;4.10;;;;;;;23.11;51.59;95702.03;10363662;28;98892;-72
2022/06/21 06:40:24;;;;;;;7.63;4.15;;;;;;;23.30;51.82;95700.00;10363114;28;98774;-73
2022/06/21 06:45:31;;;;;;;7.78;4.35;;;;;;;23.45;51.67;95707.44;10360932;28;98532;-73
2022/06/21 06:50:41;;;;;;;5.95;3.85;;;;;;;23.63;51.40;95709.84;10368119;28;97084;-76
2022/06/21 06:55:46;;;;;;;4.93;3.72;;;;;;;23.79;51.44;95702.09;10353883;28;96962;-76
2022/06/21 07:01:06;;;;;;;4.30;3.60;;;;;;;23.99;50.87;95706.91;10364633;28;97574;-75
2022/06/21 07:06:22;;;;;;;6.30;4.30;;;;;;;24.11;50.63;95703.09;10357772;28;97388;-77
2022/06/21 07:11:30;;;;;;;5.72;4.57;;;;;;;24.31;50.24;95699.09;10355830;28;96850;-75
2022/06/21 07:16:37;;;;;;;6.90;3.92;;;;;;;24.38;50.27;95694.34;10346882;28;96890;-77
2022/06/21 07:21:41;;;;;;;5.07;3.72;;;;;;;24.40;50.31;95691.44;10354464;28;96938;-77
2022/06/21 07:26:49;;;;;;;5.30;3.95;;;;;;;24.40;50.38;95708.28;10355650;28;96929;-76
2022/06/21 07:31:57;;;;;;;7.47;3.88;;;;;;;24.44;50.33;95698.72;10351810;28;97887;-75
2022/06/21 07:37:09;;;;;;;5.95;3.90;;;;;;;24.52;50.03;95702.00;10364932;28;96960;-75
2022/06/21 07:42:15;;;;;;;7.72;3.90;;;;;;;24.73;50.50;95719.91;10362325;28;96797;-75
2022/06/21 07:47:23;;;;;;;5.85;3.80;;;;;;;24.98;49.75;95710.56;10358258;28;96944;-74
2022/06/21 07:52:33;;;;;;;4.43;3.67;;;;;;;25.09;48.98;95717.59;10350812;28;99437;-77
2022/06/21 07:57:41;;;;;;;5.82;3.80;;;;;;;25.27;48.68;95710.28;10361725;28;96853;-76
2022/06/21 08:08:14;;;;;;;5.47;3.97;;;;;;;25.48;48.29;95690.69;10355647;28;96756;-76
2022/06/21 08:13:17;;;;;;;7.35;4.60;;;;;;;25.41;48.13;95690.09;10353649;28;96885;-76
2022/06/21 08:18:26;;;;;;;6.90;4.50;;;;;;;25.44;48.10;95684.22;10361551;28;97016;-76
2022/06/21 08:23:38;;;;;;;8.98;4.88;;;;;;;25.58;47.73;95676.59;10359931;28;97336;-76
2022/06/21 08:28:49;;;;;;;8.27;4.20;;;;;;;25.58;47.44;95677.44;10349865;28;96880;-77
2022/06/21 08:33:55;;;;;;;9.60;4.30;;;;;;;25.62;47.60;95675.06;10357735;28;96812;-76
2022/06/21 08:39:04;;;;;;;6.20;4.22;;;;;;;25.64;47.16;95672.13;10357519;28;96962;-77
2022/06/21 08:44:36;;;;;;;6.13;4.40;;;;;;;25.73;47.23;95665.22;10353965;28;97378;-76
2022/06/21 08:50:04;;;;;;;7.65;4.63;;;;;;;25.90;46.51;95644.47;10273314;28;97141;-76
2022/06/21 08:55:16;;;;;;;7.68;4.75;;;;;;;25.97;47.10;95649.59;10277052;28;96925;-77
2022/06/21 09:00:26;;;;;;;6.35;4.50;;;;;;;26.06;46.60;95631.94;10264139;28;97000;-77
2022/06/21 09:05:49;;;;;;;8.65;4.72;;;;;;;26.23;46.59;95637.13;10264002;28;97044;-76
2022/06/21 09:11:09;;;;;;;9.25;4.93;;;;;;;26.18;45.97;95637.09;10258981;28;97026;-77
2022/06/21 09:16:19;;;;;;;8.00;4.45;;;;;;;26.42;45.20;95629.44;10273638;28;96944;-75
2022/06/21 09:21:27;;;;;;;6.03;3.95;;;;;;;26.80;44.40;95637.31;10264204;28;97057;-77
2022/06/21 09:26:38;;;;;;;8.15;4.43;;;;;;;27.05;43.67;95632.00;10339468;28;97999;-76
2022/06/21 09:31:58;;;;;;;7.22;4.40;;;;;;;27.24;42.83;95640.31;10348999;28;96989;-76
2022/06/21 09:37:15;;;;;;;9.65;4.68;;;;;;;27.27;42.91;95623.69;10362650;28;97273;-75
2022/06/21 09:42:31;;;;;;;8.07;4.35;;;;;;;27.56;42.26;95615.09;10359712;28;97701;-77
2022/06/21 09:47:47;;;;;;;8.55;4.82;;;;;;;27.65;42.08;95623.44;10360296;28;98093;-77
2022/06/21 09:52:58;;;;;;;6.70;4.50;;;;;;;27.50;42.41;95619.66;10355259;28;97135;-76
2022/06/21 09:58:10;;;;;;;7.25;5.00;;;;;;;27.58;42.32;95612.94;10369798;28;96967;-77
2022/06/21 10:03:26;;;;;;;8.68;4.70;;;;;;;27.88;41.63;95615.88;10366238;28;96907;-76
2022/06/21 10:08:45;;;;;;;9.95;4.75;;;;;;;28.17;41.38;95613.34;10362762;28;98215;-76
2022/06/21 10:14:28;;;;;;;10.18;5.22;;;;;;;28.48;40.80;95586.34;10354897;28;97306;-76
2022/06/21 10:19:42;;;;;;;11.00;4.68;;;;;;;28.72;40.11;95579.22;10359091;28;97297;-76
2022/06/21 10:25:03;;;;;;;8.18;4.45;;;;;;;28.94;39.77;95578.81;10361528;28;98636;-76
2022/06/21 10:30:35;;;;;;;11.05;5.20;;;;;;;29.09;39.34;95574.41;10365364;28;96866;-76
2022/06/21 10:35:57;;;;;;;12.20;5.13;;;;;;;29.23;39.46;95564.59;10363941;28;97648;-76
2022/06/21 10:41:26;;;;;;;11.48;4.55;;;;;;;29.65;38.19;95554.28;10359221;28;96983;-77
2022/06/21 10:46:38;;;;;;;15.85;4.93;;;;;;;29.98;37.41;95533.69;10368432;28;96732;-77
2022/06/21 10:51:54;;;;;;;12.30;5.13;;;;;;;30.23;36.65;95542.53;10360374;28;96943;-77
2022/06/21 10:57:10;;;;;;;10.93;4.38;;;;;;;30.30;36.82;95542.97;10364574;28;96879;-77
2022/06/21 11:02:29;;;;;;;8.30;4.57;;;;;;;30.48;36.05;95530.63;10358450;28;96713;-76
2022/06/21 11:07:42;;;;;;;14.02;5.13;;;;;;;30.84;35.31;95525.50;10350520;28;96774;-77
2022/06/21 11:12:53;;;;;;;;;;;;;;;31.26;35.64;95514.00;10360315;28;96796;-76
2022/06/21 11:18:07;;;;;;;12.85;4.10;;;;;;;31.56;34.48;95516.19;10363696;28;96876;-77
2022/06/21 11:23:23;;;;;;;13.40;4.50;;;;;;;31.82;33.62;95526.47;10356419;28;98169;-77
2022/06/21 11:28:42;;;;;;;12.18;4.40;;;;;;;31.95;33.04;95517.59;10353362;28;96775;-75
2022/06/21 11:33:56;;;;;;;8.02;4.00;;;;;;;32.04;33.40;95504.19;10365521;28;96981;-76
2022/06/21 11:39:12;;;;;;;13.63;3.58;;;;;;;32.51;32.26;95499.38;10364437;28;96929;-78
2022/06/21 11:44:25;;;;;;;9.95;3.80;;;;;;;32.81;31.91;95501.66;10357403;28;96937;-76
2022/06/21 11:49:47;;;;;;;9.52;3.97;;;;;;;33.19;30.70;95496.66;10351705;28;96786;-74
2022/06/21 11:54:57;;;;;;;11.77;3.70;;;;;;;33.35;30.52;95488.13;10359698;28;96938;-77
2022/06/21 12:00:06;;;;;;;9.63;3.75;;;;;;;33.09;29.17;95484.19;10362341;28;96870;-77
2022/06/21 12:05:23;;;;;;;10.57;3.45;;;;;;;32.90;29.86;95478.16;10361374;28;96797;-77
2022/06/21 12:10:44;;;;;;;15.93;3.78;;;;;;;32.90;28.38;95476.25;10350205;28;96894;-77
2022/06/21 12:16:02;;;;;;;11.82;3.05;;;;;;;32.74;28.37;95471.56;10358654;28;96872;-77
2022/06/21 12:21:10;;;;;;;8.77;3.47;;;;;;;32.50;29.44;95468.03;10360922;28;96925;-76
2022/06/21 12:26:18;;;;;;;13.13;3.55;;;;;;;32.77;29.62;95462.78;10356192;28;96897;-75
2022/06/21 12:31:24;;;;;;;10.20;3.30;;;;;;;32.95;29.24;95458.31;10352769;28;97550;-77
2022/06/21 12:36:46;;;;;;;12.00;3.85;;;;;;;33.09;29.32;95443.59;10358358;28;96780;-76
2022/06/21 12:42:01;;;;;;;10.27;3.45;;;;;;;32.91;29.71;95436.50;10360945;28;96763;-77
2022/06/21 12:47:19;;;;;;;11.50;3.50;;;;;;;32.92;29.61;95413.72;10352922;28;96956;-77
2022/06/21 12:52:32;;;;;;;14.30;3.65;;;;;;;32.86;29.20;95412.28;10350808;28;97025;-77
2022/06/21 12:57:55;;;;;;;12.75;3.47;;;;;;;33.08;28.56;95414.97;10360644;28;96851;-76
2022/06/21 13:03:26;;;;;;;12.50;3.50;;;;;;;33.61;28.01;95421.34;10359966;28;98027;-77
2022/06/21 13:08:54;;;;;;;16.67;3.65;;;;;;;33.72;27.98;95416.44;10356587;28;97240;-77
2022/06/21 13:14:19;;;;;;;11.13;3.40;;;;;;;34.05;27.36;95407.84;10351704;28;97023;-77
2022/06/21 13:19:31;;;;;;;13.30;3.88;;;;;;;34.39;27.29;95425.28;10364150;28;96933;-74
2022/06/21 13:24:52;;;;;;;14.70;3.53;;;;;;;34.56;27.14;95433.38;10364438;28;97005;-78
2022/06/21 13:30:28;;;;;;;12.85;3.92;;;;;;;34.37;27.51;95435.66;10366427;28;97013;-77
2022/06/21 13:35:44;;;;;;;11.98;3.58;;;;;;;33.97;27.90;95433.06;10363791;28;97446;-75
2022/06/21 13:40:52;;;;;;;14.25;3.80;;;;;;;33.52;28.51;95444.09;10356413;28;96770;-76
2022/06/21 13:46:03;;;;;;;11.63;3.58;;;;;;;33.15;28.92;95447.00;10363586;28;97090;-77
2022/06/21 13:51:22;;;;;;;13.63;3.70;;;;;;;32.72;29.70;95461.81;10366169;28;96850;-77
2022/06/21 13:56:30;;;;;;;16.27;4.10;;;;;;;32.32;29.75;95448.16;10364609;28;96776;-76
2022/06/21 14:01:42;;;;;;;14.93;3.33;;;;;;;31.99;29.84;95450.28;10353542;28;96886;-74
2022/06/21 14:06:57;;;;;;;14.98;3.33;;;;;;;31.89;29.58;95461.25;10363976;28;96935;-77
2022/06/21 14:12:09;;;;;;;16.20;4.32;;;;;;;31.84;29.57;95443.25;10368101;28;99461;-76
2022/06/21 14:17:21;;;;;;;12.43;3.30;;;;;;;32.25;29.50;95430.75;10370324;28;96919;-77
2022/06/21 14:22:29;;;;;;;14.90;3.85;;;;;;;33.50;28.30;95413.81;10353647;27;96902;-78
2022/06/21 14:27:40;;;;;;;12.73;3.88;;;;;;;34.87;26.36;95405.28;10365538;28;96821;-77
2022/06/21 14:32:51;;;;;;;13.80;3.70;;;;;;;35.67;25.22;95406.53;10364038;28;97124;-78
2022/06/21 14:38:01;;;;;;;15.20;3.55;;;;;;;35.68;25.45;95416.25;10354694;28;96757;-77
2022/06/21 14:43:25;;;;;;;16.38;3.72;;;;;;;34.72;25.24;95408.50;10369147;28;99517;-76
2022/06/21 14:48:36;;;;;;;14.00;3.63;;;;;;;34.08;26.01;95406.44;10374041;28;96880;-77
2022/06/21 14:53:57;;;;;;;14.35;3.63;;;;;;;33.50;27.16;95430.06;10362100;28;96950;-77
2022/06/21 14:59:21;;;;;;;11.43;3.83;;;;;;;33.25;27.17;95437.78;10354847;28;96842;-77
2022/06/21 15:04:50;;;;;;;13.65;3.80;;;;;;;32.82;27.34;95424.81;10352805;28;96988;-77
2022/06/21 15:09:57;;;;;;;14.40;4.38;;;;;;;32.37;28.30;95427.50;10373570;28;96846;-77
2022/06/21 15:15:25;;;;;;;13.10;3.47;;;;;;;31.96;28.51;95421.94;10362940;28;101709;-77
2022/06/21 15:20:33;;;;;;;14.68;3.58;;;;;;;31.94;28.99;95420.66;10359979;28;96766;-76
2022/06/21 15:25:45;;;;;;;15.00;3.85;;;;;;;32.27;28.79;95442.88;10363492;28;97963;-76
2022/06/21 15:30:55;;;;;;;15.70;3.72;;;;;;;32.38;28.93;95445.34;10380597;28;97564;-76
2022/06/21 15:36:11;;;;;;;13.32;3.60;;;;;;;31.87;29.25;95448.06;10364547;28;96988;-73
2022/06/21 15:41:22;;;;;;;16.33;4.40;;;;;;;31.33;29.75;95458.56;10382338;28;97114;-76
2022/06/21 15:46:30;;;;;;;13.68;3.85;;;;;;;30.97;30.23;95459.22;10352398;28;96998;-75
2022/06/21 15:51:39;;;;;;;19.33;4.93;;;;;;;30.78;30.32;95467.34;10363131;28;97019;-77
2022/06/21 15:56:53;;;;;;;14.85;3.88;;;;;;;30.64;30.43;95461.09;10362584;28;96998;-77
2022/06/21 16:02:08;;;;;;;17.58;3.95;;;;;;;30.43;30.49;95472.22;10352694;28;98153;-76
2022/06/21 16:07:19;;;;;;;18.38;4.40;;;;;;;30.24;30.44;95468.72;10364649;28;96832;-76
2022/06/21 16:12:25;;;;;;;14.80;4.20;;;;;;;30.05;30.36;95466.00;10366536;28;97559;-76
2022/06/21 16:17:36;;;;;;;22.38;5.15;;;;;;;30.02;30.48;95451.22;10358407;28;97460;-77
2022/06/21 16:22:45;;;;;;;20.08;4.97;;;;;;;29.87;30.89;95436.09;10354861;28;97027;-76
2022/06/21 16:27:52;;;;;;;13.55;4.60;;;;;;;29.95;30.21;95413.09;10357868;28;98539;-76
2022/06/21 16:33:15;;;;;;;21.08;4.70;;;;;;;29.83;30.44;95418.09;10360181;28;96824;-76
2022/06/21 16:38:27;;;;;;;19.05;4.75;;;;;;;29.65;30.84;95420.50;10352813;28;99060;-76
2022/06/21 16:43:42;;;;;;;18.42;5.00;;;;;;;29.64;31.36;95426.94;10373457;28;97062;-76
2022/06/21 16:48:53;;;;;;;14.20;4.57;;;;;;;29.74;31.66;95428.72;10368484;28;96961;-76
2022/06/21 16:53:57;;;;;;;14.90;4.70;;;;;;;30.35;31.75;95418.97;10360068;28;98579;-76
2022/06/21 16:59:15;;;;;;;13.65;4.32;;;;;;;31.39;31.05;95416.13;10374678;28;98152;-76
2022/06/21 17:04:22;;;;;;;14.23;3.85;;;;;;;31.82;31.07;95402.25;10374843;28;97668;-76
2022/06/21 17:09:27;;;;;;;13.88;4.13;;;;;;;31.70;31.55;95410.88;10365672;28;96967;-76
2022/06/21 17:14:58;;;;;;;12.45;4.00;;;;;;;31.47;32.14;95401.09;10366299;28;97103;-76
2022/06/21 17:20:08;;;;;;;;;;;;;;;31.04;32.70;95394.09;10376384;28;97826;-76
2022/06/21 17:25:15;;;;;;;10.25;3.65;;;;;;;31.65;32.34;95408.28;10369294;28;96722;-76
2022/06/21 17:30:21;;;;;;;11.18;3.63;;;;;;;33.35;30.70;95434.78;10374279;28;96925;-76
2022/06/21 17:35:31;;;;;;;8.27;3.53;;;;;;;34.05;29.60;95445.78;10365059;28;97078;-77
2022/06/21 17:40:42;;;;;;;12.00;3.97;;;;;;;33.01;30.53;95455.16;10371710;28;97118;-74
2022/06/21 17:45:49;;;;;;;8.23;3.70;;;;;;;32.29;31.92;95464.97;10377715;28;96950;-76
2022/06/21 17:50:57;;;;;;;11.00;3.90;;;;;;;31.56;32.37;95489.19;10363252;28;97320;-75
2022/06/21 17:56:08;;;;;;;12.55;4.10;;;;;;;30.99;33.45;95488.59;10362103;28;99311;-74
2022/06/21 18:01:19;;;;;;;9.82;4.20;;;;;;;30.34;34.21;95473.97;10376943;28;97000;-75
2022/06/21 18:06:29;;;;;;;15.80;4.72;;;;;;;30.01;34.74;95476.56;10378440;28;97972;-75
2022/06/21 18:11:41;;;;;;;17.88;4.95;;;;;;;29.79;34.76;95489.78;10371272;28;96948;-74
2022/06/21 18:16:56;;;;;;;13.38;4.72;;;;;;;29.43;35.05;95511.69;10363799;28;97057;-76
2022/06/21 18:22:11;;;;;;;14.77;5.10;;;;;;;29.23;35.14;95508.13;10361025;28;98489;-77
2022/06/21 18:27:24;;;;;;;15.20;5.00;;;;;;;29.20;35.25;95510.59;10375651;28;97445;-78
2022/06/21 18:32:39;;;;;;;10.20;3.95;;;;;;;29.11;35.52;95508.50;10374751;28;97260;-76
2022/06/21 18:38:00;;;;;;;13.45;5.00;;;;;;;29.02;35.83;95515.59;10367273;28;98041;-77
2022/06/21 18:43:11;;;;;;;14.05;4.88;;;;;;;28.91;35.83;95517.53;10361783;28;96962;-76
2022/06/21 18:48:33;;;;;;;15.07;4.90;;;;;;;28.76;36.18;95517.66;10378717;28;96967;-76
2022/06/21 18:53:43;;;;;;;19.83;5.15;;;;;;;28.55;36.25;95520.50;10368600;28;97433;-76
2022/06/21 18:59:03;;;;;;;14.68;4.82;;;;;;;28.40;36.53;95516.03;10374122;28;96898;-74
2022/06/21 19:04:20;;;;;;;16.60;5.28;;;;;;;28.31;36.67;95506.97;10375973;28;97008;-76
2022/06/21 19:09:39;;;;;;;12.65;4.80;;;;;;;28.10;37.19;95489.31;10362099;28;97678;-76
2022/06/21 19:14:56;;;;;;;20.02;5.45;;;;;;;27.97;37.31;95475.41;10364704;28;97294;-76
2022/06/21 19:20:23;;;;;;;16.88;4.95;;;;;;;27.78;37.64;95482.50;10351538;28;97171;-75
2022/06/21 19:25:38;;;;;;;15.82;4.90;;;;;;;27.31;39.39;95469.22;10377166;28;96937;-76
2022/06/21 19:30:58;;;;;;;11.32;4.65;;;;;;;26.93;40.09;95473.31;10360991;28;101268;-76
2022/06/21 19:36:18;;;;;;;16.95;4.95;;;;;;;26.52;41.16;95473.34;10373915;28;101761;-76
2022/06/21 19:41:31;;;;;;;14.00;4.50;;;;;;;26.19;41.97;95459.34;10368271;28;101773;-76
2022/06/21 19:46:40;;;;;;;16.52;5.13;;;;;;;26.12;42.25;95448.09;10364923;28;96810;-75
2022/06/21 19:51:57;;;;;;;13.68;5.05;;;;;;;26.09;42.71;95416.50;10364318;28;96893;-76
2022/06/21 19:57:35;;;;;;;14.00;4.88;;;;;;;25.94;42.90;95428.78;10367209;28;96870;-75
2022/06/21 20:02:42;;;;;;;18.73;5.13;;;;;;;25.66;43.04;95438.09;10369299;28;96938;-75
2022/06/21 20:08:09;;;;;;;16.23;4.55;;;;;;;25.61;42.59;95428.16;10361806;28;98156;-75
2022/06/21 20:13:28;;;;;;;20.75;5.05;;;;;;;25.68;42.69;95424.44;10357369;28;97067;-75
2022/06/21 20:18:41;;;;;;;17.15;4.90;;;;;;;25.76;42.18;95440.00;10364323;28;96948;-75
2022/06/21 20:23:53;;;;;;;17.10;4.87;;;;;;;25.79;42.13;95453.66;10340503;28;97328;-75
2022/06/21 20:29:10;;;;;;;15.23;4.85;;;;;;;25.85;41.85;95464.38;10355676;28;97898;-75
2022/06/21 20:34:20;;;;;;;16.20;5.25;;;;;;;25.84;41.79;95484.94;10368728;28;97578;-75
2022/06/21 20:39:41;;;;;;;19.13;5.45;;;;;;;25.81;41.66;95491.63;10348464;28;97307;-75
2022/06/21 20:44:54;;;;;;;16.75;4.70;;;;;;;25.76;41.48;95490.81;10361517;28;96963;-75
2022/06/21 20:50:31;;;;;;;13.77;5.25;;;;;;;25.72;41.30;95481.69;10342497;28;97043;-75
2022/06/21 20:56:08;;;;;;;20.10;6.20;;;;;;;25.70;41.38;95495.34;10352223;28;97972;-72
2022/06/21 21:01:14;;;;;;;16.08;4.97;;;;;;;25.65;41.39;95497.19;10368779;28;97842;-74
2022/06/21 21:06:21;;;;;;;14.43;4.47;;;;;;;25.57;41.43;95491.28;10355064;28;97572;-74
2022/06/21 21:11:27;;;;;;;19.23;5.07;;;;;;;25.49;41.62;95498.97;10355680;28;96976;-76
2022/06/21 21:16:36;;;;;;;12.90;4.60;;;;;;;25.41;41.70;95494.94;10363701;28;96846;-77
2022/06/21 21:21:44;;;;;;;13.40;5.07;;;;;;;25.31;42.11;95509.03;10341127;28;96868;-72
2022/06/21 21:26:53;;;;;;;15.70;4.43;;;;;;;25.23;42.57;95491.63;10348109;28;97301;-73
2022/06/21 21:32:23;;;;;;;15.80;5.28;;;;;;;25.14;42.24;95492.38;10383297;28;97920;-73
2022/06/21 21:37:33;;;;;;;16.10;5.05;;;;;;;25.11;43.05;95488.31;10347893;28;98613;-73
2022/06/21 21:42:49;;;;;;;18.88;5.13;;;;;;;25.04;43.14;95509.13;10366678;28;100031;-72
2022/06/21 21:47:54;;;;;;;16.23;4.45;;;;;;;24.86;43.18;95503.13;10357160;28;96929;-75
2022/06/21 21:52:57;;;;;;;14.57;4.53;;;;;;;24.71;43.98;95481.63;10358526;28;98002;-74
2022/06/21 21:58:00;;;;;;;16.05;5.13;;;;;;;24.46;44.19;95483.03;10372795;28;96876;-75
2022/06/21 22:03:20;;;;;;;18.57;5.03;;;;;;;24.29;44.56;95469.00;10360442;28;96950;-75
2022/06/21 22:08:34;;;;;;;14.98;4.88;;;;;;;24.15;45.00;95479.28;10371008;28;97480;-75
2022/06/21 22:13:46;;;;;;;20.38;5.50;;;;;;;24.09;44.04;95483.75;10366381;28;97852;-74
2022/06/21 22:18:57;;;;;;;21.15;5.20;;;;;;;24.07;43.67;95491.22;10376294;28;96895;-76
2022/06/21 22:24:08;;;;;;;19.65;5.18;;;;;;;24.08;43.63;95514.16;10371568;28;98113;-77
2022/06/21 22:29:19;;;;;;;15.00;4.70;;;;;;;24.08;43.62;95514.16;10372110;28;96862;-76
2022/06/21 22:34:26;;;;;;;11.00;4.20;;;;;;;24.04;44.19;95512.22;10373644;28;97121;-76
2022/06/21 22:39:33;;;;;;;13.52;4.95;;;;;;;24.02;44.50;95517.81;10372622;28;98748;-74
2022/06/21 22:44:40;;;;;;;17.42;5.03;;;;;;;23.99;44.47;95531.63;10372973;28;97641;-72
2022/06/21 22:49:48;;;;;;;14.05;4.82;;;;;;;24.06;44.28;95545.63;10375142;28;96998;-75
2022/06/21 22:54:51;;;;;;;15.60;4.97;;;;;;;24.20;43.84;95542.56;10366135;28;97326;-76
2022/06/21 23:00:01;;;;;;;16.87;5.13;;;;;;;24.30;43.96;95556.03;10366943;28;96831;-75
2022/06/21 23:05:16;;;;;;;14.38;5.03;;;;;;;24.28;44.83;95558.13;10362972;28;97042;-76
2022/06/21 23:10:22;;;;;;;16.27;5.07;;;;;;;24.18;44.79;95560.69;10358254;28;96953;-74
2022/06/21 23:15:28;;;;;;;16.02;4.88;;;;;;;24.02;45.91;95563.16;10372413;28;97342;-74
2022/06/21 23:20:33;;;;;;;14.65;5.20;;;;;;;23.70;46.41;95550.50;10366974;28;97812;-74
2022/06/21 23:25:39;;;;;;;20.35;5.05;;;;;;;23.62;47.08;95564.28;10372842;28;96989;-73
2022/06/21 23:30:43;;;;;;;17.05;4.63;;;;;;;23.63;47.23;95563.19;10362913;28;102811;-74
2022/06/21 23:35:50;;;;;;;16.02;5.20;;;;;;;23.62;47.17;95556.28;10368916;28;98553;-74
2022/06/21 23:40:56;;;;;;;19.60;5.13;;;;;;;23.65;47.44;95555.75;10358526;28;97293;-75
2022/06/21 23:45:58;;;;;;;16.50;4.85;;;;;;;23.66;47.91;95549.38;10363535;28;98452;-74
2022/06/21 23:51:05;;;;;;;20.25;5.63;;;;;;;23.69;49.11;95543.56;10357485;28;97816;-75
2022/06/21 23:56:11;;;;;;;18.15;5.15;;;;;;;23.69;48.18;95543.56;10369783;28;96900;-74
